sensor_id;sensor_type;location;lat;lon;timestamp;pressure;altitude;pressure_sealevel;temperature;humidity
14293;BME280;62290;59.420;17.842;2023-08-08T00:00:11;98717.72;;;25.20;51.51
14293;BME280;62290;59.420;17.842;2023-08-08T00:02:41;98720.88;;;25.24;51.47
14293;BME280;62290;59.420;17.842;2023-08-08T00:05:09;98724.59;;;25.23;51.52
14293;BME280;62290;59.420;17.842;2023-08-08T00:07:37;98729.13;;;25.22;51.29
14293;BME280;62290;59.420;17.842;2023-08-08T00:10:06;98712.13;;;25.22;50.92
14293;BME280;62290;59.420;17.842;2023-08-08T00:12:35;98721.88;;;25.23;51.32
14293;BME280;62290;59.420;17.842;2023-08-08T00:15:03;98728.28;;;25.22;51.35
14293;BME280;62290;59.420;17.842;2023-08-08T00:17:32;98728.28;;;25.22;50.87
14293;BME280;62290;59.420;17.842;2023-08-08T00:20:02;98728.28;;;25.22;50.92
14293;BME280;62290;59.420;17.842;2023-08-08T00:22:30;98718.34;;;25.22;51.25
14293;BME280;62290;59.420;17.842;2023-08-08T00:24:58;98719.56;;;25.20;51.26
14293;BME280;62290;59.420;17.842;2023-08-08T00:27:26;98715.88;;;25.21;50.84
14293;BME280;62290;59.420;17.842;2023-08-08T00:29:54;98727.66;;;25.20;50.75
14293;BME280;62290;59.420;17.842;2023-08-08T00:32:22;98731.19;;;25.20;50.81
14293;BME280;62290;59.420;17.842;2023-08-08T00:34:50;98710.47;;;25.21;51.40
14293;BME280;62290;59.420;17.842;2023-08-08T00:37:20;98705.09;;;25.21;51.33
14293;BME280;62290;59.420;17.842;2023-08-08T00:39:48;98692.63;;;25.20;50.97
14293;BME280;62290;59.420;17.842;2023-08-08T00:42:16;98685.53;;;25.18;51.08
14293;BME280;62290;59.420;17.842;2023-08-08T00:44:44;98690.94;;;25.18;51.57
14293;BME280;62290;59.420;17.842;2023-08-08T00:47:12;98695.53;;;25.18;51.19
14293;BME280;62290;59.420;17.842;2023-08-08T00:49:40;98686.78;;;25.16;51.62
14293;BME280;62290;59.420;17.842;2023-08-08T00:52:10;98692.81;;;25.18;51.24
14293;BME280;62290;59.420;17.842;2023-08-08T00:54:40;98686.38;;;25.19;51.55
14293;BME280;62290;59.420;17.842;2023-08-08T00:57:08;98688.25;;;25.18;51.22
14293;BME280;62290;59.420;17.842;2023-08-08T00:59:36;98679.34;;;25.18;51.15
14293;BME280;62290;59.420;17.842;2023-08-08T01:02:05;98677.66;;;25.17;51.03
14293;BME280;62290;59.420;17.842;2023-08-08T01:04:33;98671.44;;;25.16;51.51
14293;BME280;62290;59.420;17.842;2023-08-08T01:07:05;98656.31;;;25.15;51.01
14293;BME280;62290;59.420;17.842;2023-08-08T01:09:37;98660.88;;;25.15;51.26
14293;BME280;62290;59.420;17.842;2023-08-08T01:12:09;98644.06;;;25.13;51.42
14293;BME280;62290;59.420;17.842;2023-08-08T01:14:40;98649.03;;;25.16;51.07
14293;BME280;62290;59.420;17.842;2023-08-08T01:17:10;98651.94;;;25.14;51.28
14293;BME280;62290;59.420;17.842;2023-08-08T01:19:39;98640.53;;;25.12;51.53
14293;BME280;62290;59.420;17.842;2023-08-08T01:22:14;98641.16;;;25.14;51.23
14293;BME280;62290;59.420;17.842;2023-08-08T01:24:44;98633.06;;;25.14;51.22
14293;BME280;62290;59.420;17.842;2023-08-08T01:27:12;98624.34;;;25.12;51.56
14293;BME280;62290;59.420;17.842;2023-08-08T01:29:41;98594.75;;;24.98;51.33
14293;BME280;62290;59.420;17.842;2023-08-08T01:32:09;98607.34;;;25.12;51.42
14293;BME280;62290;59.420;17.842;2023-08-08T01:34:38;98615.41;;;25.12;51.56
14293;BME280;62290;59.420;17.842;2023-08-08T01:37:11;98602.97;;;25.11;51.65
14293;BME280;62290;59.420;17.842;2023-08-08T01:39:44;98592.38;;;25.09;51.16
14293;BME280;62290;59.420;17.842;2023-08-08T01:42:15;98594.25;;;25.09;51.64
14293;BME280;62290;59.420;17.842;2023-08-08T01:44:44;98587.22;;;25.08;51.49
14293;BME280;62290;59.420;17.842;2023-08-08T01:47:11;98588.22;;;25.07;51.45
14293;BME280;62290;59.420;17.842;2023-08-08T01:49:39;98581.16;;;25.06;51.75
14293;BME280;62290;59.420;17.842;2023-08-08T01:52:07;98578.66;;;25.04;51.22
14293;BME280;62290;59.420;17.842;2023-08-08T01:54:35;98577.38;;;25.00;51.60
14293;BME280;62290;59.420;17.842;2023-08-08T01:57:05;98579.69;;;25.03;51.45
14293;BME280;62290;59.420;17.842;2023-08-08T01:59:33;98565.78;;;25.00;51.38
14293;BME280;62290;59.420;17.842;2023-08-08T02:02:01;98584.44;;;25.01;51.86
14293;BME280;62290;59.420;17.842;2023-08-08T02:04:29;98561.41;;;24.99;51.30
14293;BME280;62290;59.420;17.842;2023-08-08T02:06:57;98569.50;;;24.99;51.53
14293;BME280;62290;59.420;17.842;2023-08-08T02:09:25;98561.63;;;24.97;51.56
14293;BME280;62290;59.420;17.842;2023-08-08T02:11:53;98553.53;;;24.97;51.55
14293;BME280;62290;59.420;17.842;2023-08-08T02:14:24;98541.06;;;24.96;51.98
14293;BME280;62290;59.420;17.842;2023-08-08T02:16:53;98532.16;;;24.96;52.06
14293;BME280;62290;59.420;17.842;2023-08-08T02:19:21;98525.28;;;24.93;52.16
14293;BME280;62290;59.420;17.842;2023-08-08T02:21:49;98512.03;;;24.92;51.93
14293;BME280;62290;59.420;17.842;2023-08-08T02:24:17;98508.50;;;24.91;51.94
14293;BME280;62290;59.420;17.842;2023-08-08T02:26:45;98499.56;;;24.91;52.17
14293;BME280;62290;59.420;17.842;2023-08-08T02:29:14;98485.25;;;24.90;52.07
14293;BME280;62290;59.420;17.842;2023-08-08T02:31:43;98475.94;;;24.86;51.82
14293;BME280;62290;59.420;17.842;2023-08-08T02:34:11;98474.69;;;24.89;51.82
14293;BME280;62290;59.420;17.842;2023-08-08T02:36:39;98473.84;;;24.88;52.23
14293;BME280;62290;59.420;17.842;2023-08-08T02:39:07;98466.78;;;24.87;51.97
14293;BME280;62290;59.420;17.842;2023-08-08T02:41:35;98459.75;;;24.86;51.97
14293;BME280;62290;59.420;17.842;2023-08-08T02:44:03;98462.47;;;24.86;52.29
14293;BME280;62290;59.420;17.842;2023-08-08T02:46:31;98463.47;;;24.85;51.84
14293;BME280;62290;59.420;17.842;2023-08-08T02:49:01;98459.75;;;24.86;51.86
14293;BME280;62290;59.420;17.842;2023-08-08T02:51:29;98457.25;;;24.85;51.94
14293;BME280;62290;59.420;17.842;2023-08-08T02:53:57;98451.84;;;24.85;52.19
14293;BME280;62290;59.420;17.842;2023-08-08T02:56:27;98454.75;;;24.83;52.03
14293;BME280;62290;59.420;17.842;2023-08-08T02:58:55;98435.28;;;24.81;52.45
14293;BME280;62290;59.420;17.842;2023-08-08T03:01:23;98403.19;;;24.65;51.83
14293;BME280;62290;59.420;17.842;2023-08-08T03:03:53;98433.22;;;24.83;52.40
14293;BME280;62290;59.420;17.842;2023-08-08T03:06:25;98418.91;;;24.83;52.18
14293;BME280;62290;59.420;17.842;2023-08-08T03:08:54;98417.66;;;24.79;51.98
14293;BME280;62290;59.420;17.842;2023-08-08T03:11:22;98422.66;;;24.82;52.13
14293;BME280;62290;59.420;17.842;2023-08-08T03:13:50;98398.56;;;24.80;52.52
14293;BME280;62290;59.420;17.842;2023-08-08T03:16:18;98390.50;;;24.80;52.59
14293;BME280;62290;59.420;17.842;2023-08-08T03:18:47;98391.69;;;24.78;52.64
14293;BME280;62290;59.420;17.842;2023-08-08T03:21:15;98392.34;;;24.80;52.44
14293;BME280;62290;59.420;17.842;2023-08-08T03:23:45;98386.97;;;24.80;52.19
14293;BME280;62290;59.420;17.842;2023-08-08T03:26:13;98380.78;;;24.79;52.67
14293;BME280;62290;59.420;17.842;2023-08-08T03:28:42;98387.19;;;24.78;52.60
14293;BME280;62290;59.420;17.842;2023-08-08T03:31:10;98391.69;;;24.78;52.58
14293;BME280;62290;59.420;17.842;2023-08-08T03:33:39;98390.03;;;24.77;52.79
14293;BME280;62290;59.420;17.842;2023-08-08T03:36:09;98383.81;;;24.76;52.85
14293;BME280;62290;59.420;17.842;2023-08-08T03:38:37;98377.78;;;24.74;52.63
14293;BME280;62290;59.420;17.842;2023-08-08T03:41:07;98374.91;;;24.76;52.79
14293;BME280;62290;59.420;17.842;2023-08-08T03:43:35;98365.16;;;24.75;52.51
14293;BME280;62290;59.420;17.842;2023-08-08T03:46:04;98364.53;;;24.73;52.70
14293;BME280;62290;59.420;17.842;2023-08-08T03:48:32;98363.50;;;24.74;52.53
14293;BME280;62290;59.420;17.842;2023-08-08T03:51:00;98357.28;;;24.73;52.80
14293;BME280;62290;59.420;17.842;2023-08-08T03:53:28;98355.59;;;24.72;52.73
14293;BME280;62290;59.420;17.842;2023-08-08T03:55:56;98354.75;;;24.72;52.91
14293;BME280;62290;59.420;17.842;2023-08-08T03:58:26;98351.25;;;24.71;52.87
14293;BME280;62290;59.420;17.842;2023-08-08T04:00:54;98345.22;;;24.69;52.65
14293;BME280;62290;59.420;17.842;2023-08-08T04:03:23;98337.97;;;24.70;52.97
14293;BME280;62290;59.420;17.842;2023-08-08T04:05:51;98339.84;;;24.69;53.08
14293;BME280;62290;59.420;17.842;2023-08-08T04:08:19;98319.09;;;24.63;52.48
14293;BME280;62290;59.420;17.842;2023-08-08T04:10:49;98320.34;;;24.67;52.50
14293;BME280;62290;59.420;17.842;2023-08-08T04:13:17;98326.56;;;24.68;52.99
14293;BME280;62290;59.420;17.842;2023-08-08T04:15:46;98324.09;;;24.66;52.51
14293;BME280;62290;59.420;17.842;2023-08-08T04:18:14;98318.06;;;24.64;53.02
14293;BME280;62290;59.420;17.842;2023-08-08T04:20:42;98319.94;;;24.64;52.77
14293;BME280;62290;59.420;17.842;2023-08-08T04:23:10;98316.00;;;24.66;52.77
14293;BME280;62290;59.420;17.842;2023-08-08T04:25:38;98318.72;;;24.66;52.72
14293;BME280;62290;59.420;17.842;2023-08-08T04:28:06;98324.91;;;24.67;52.67
14293;BME280;62290;59.420;17.842;2023-08-08T04:30:34;98300.88;;;24.65;52.92
14293;BME280;62290;59.420;17.842;2023-08-08T04:33:04;98316.00;;;24.66;52.81
14293;BME280;62290;59.420;17.842;2023-08-08T04:35:32;98304.59;;;24.64;52.45
14293;BME280;62290;59.420;17.842;2023-08-08T04:38:01;98298.41;;;24.64;52.60
14293;BME280;62290;59.420;17.842;2023-08-08T04:40:29;98292.16;;;24.63;52.68
14293;BME280;62290;59.420;17.842;2023-08-08T04:42:57;98292.16;;;24.63;52.75
14293;BME280;62290;59.420;17.842;2023-08-08T04:45:25;98297.56;;;24.63;52.62
14293;BME280;62290;59.420;17.842;2023-08-08T04:47:53;98303.97;;;24.62;52.46
14293;BME280;62290;59.420;17.842;2023-08-08T04:50:23;98293.19;;;24.62;52.23
14293;BME280;62290;59.420;17.842;2023-08-08T04:52:51;98289.88;;;24.60;52.72
14293;BME280;62290;59.420;17.842;2023-08-08T04:55:19;98291.72;;;24.60;52.50
14293;BME280;62290;59.420;17.842;2023-08-08T04:57:47;98289.66;;;24.62;52.63
14293;BME280;62290;59.420;17.842;2023-08-08T05:00:16;98280.94;;;24.60;52.61
14293;BME280;62290;59.420;17.842;2023-08-08T05:02:44;98288.00;;;24.61;52.74
14293;BME280;62290;59.420;17.842;2023-08-08T05:05:12;98274.72;;;24.59;52.81
14293;BME280;62290;59.420;17.842;2023-08-08T05:07:42;98275.56;;;24.60;52.85
14293;BME280;62290;59.420;17.842;2023-08-08T05:10:10;98271.19;;;24.58;52.43
14293;BME280;62290;59.420;17.842;2023-08-08T05:12:39;98256.09;;;24.58;52.74
14293;BME280;62290;59.420;17.842;2023-08-08T05:15:07;98270.56;;;24.56;52.77
14293;BME280;62290;59.420;17.842;2023-08-08T05:17:36;98260.63;;;24.57;52.82
14293;BME280;62290;59.420;17.842;2023-08-08T05:20:05;98254.41;;;24.56;52.84
14293;BME280;62290;59.420;17.842;2023-08-08T05:22:34;98249.25;;;24.55;52.70
14293;BME280;62290;59.420;17.842;2023-08-08T05:25:04;98250.09;;;24.55;52.75
14293;BME280;62290;59.420;17.842;2023-08-08T05:27:32;98243.03;;;24.54;52.97
14293;BME280;62290;59.420;17.842;2023-08-08T05:30:01;98235.16;;;24.53;53.17
14293;BME280;62290;59.420;17.842;2023-08-08T05:32:29;98235.16;;;24.53;52.75
14293;BME280;62290;59.420;17.842;2023-08-08T05:34:57;98237.00;;;24.52;52.63
14293;BME280;62290;59.420;17.842;2023-08-08T05:37:27;98225.81;;;24.49;52.65
14293;BME280;62290;59.420;17.842;2023-08-08T05:39:55;98229.13;;;24.51;52.69
14293;BME280;62290;59.420;17.842;2023-08-08T05:42:24;98212.78;;;24.52;52.66
14293;BME280;62290;59.420;17.842;2023-08-08T05:44:52;98210.28;;;24.51;52.75
14293;BME280;62290;59.420;17.842;2023-08-08T05:47:20;98201.19;;;24.52;52.49
14293;BME280;62290;59.420;17.842;2023-08-08T05:49:49;98199.31;;;24.52;52.63
14293;BME280;62290;59.420;17.842;2023-08-08T05:52:17;98193.09;;;24.52;52.76
14293;BME280;62290;59.420;17.842;2023-08-08T05:54:45;98190.41;;;24.52;52.48
14293;BME280;62290;59.420;17.842;2023-08-08T05:57:13;98179.63;;;24.52;52.44
14293;BME280;62290;59.420;17.842;2023-08-08T05:59:42;98180.47;;;24.52;52.86
14293;BME280;62290;59.420;17.842;2023-08-08T06:02:11;98177.78;;;24.52;52.82
14293;BME280;62290;59.420;17.842;2023-08-08T06:04:39;98158.50;;;24.49;52.96
14293;BME280;62290;59.420;17.842;2023-08-08T06:07:07;98155.41;;;24.52;52.57
14293;BME280;62290;59.420;17.842;2023-08-08T06:09:36;98145.47;;;24.52;52.84
14293;BME280;62290;59.420;17.842;2023-08-08T06:12:05;98142.78;;;24.52;53.12
14293;BME280;62290;59.420;17.842;2023-08-08T06:14:34;98153.34;;;24.54;53.08
14293;BME280;62290;59.420;17.842;2023-08-08T06:17:04;98144.25;;;24.55;52.95
14293;BME280;62290;59.420;17.842;2023-08-08T06:19:32;98139.03;;;24.53;53.03
14293;BME280;62290;59.420;17.842;2023-08-08T06:22:00;98133.47;;;24.55;52.89
14293;BME280;62290;59.420;17.842;2023-08-08T06:24:30;98129.09;;;24.54;52.88
14293;BME280;62290;59.420;17.842;2023-08-08T06:26:58;98103.19;;;24.40;52.69
14293;BME280;62290;59.420;17.842;2023-08-08T06:29:26;98129.94;;;24.54;52.96
14293;BME280;62290;59.420;17.842;2023-08-08T06:31:54;98116.50;;;24.54;52.94
14293;BME280;62290;59.420;17.842;2023-08-08T06:34:24;98126.41;;;24.54;52.95
14293;BME280;62290;59.420;17.842;2023-08-08T06:36:52;98114.81;;;24.53;53.29
14293;BME280;62290;59.420;17.842;2023-08-08T06:39:20;98099.91;;;24.51;53.15
14293;BME280;62290;59.420;17.842;2023-08-08T06:41:48;98093.88;;;24.49;52.92
14293;BME280;62290;59.420;17.842;2023-08-08T06:44:28;98099.09;;;24.50;53.14
14293;BME280;62290;59.420;17.842;2023-08-08T06:46:56;98088.09;;;24.52;53.17
14293;BME280;62290;59.420;17.842;2023-08-08T06:49:26;98089.78;;;24.53;53.14
14293;BME280;62290;59.420;17.842;2023-08-08T06:51:54;98092.47;;;24.53;53.13
14293;BME280;62290;59.420;17.842;2023-08-08T06:54:22;98092.47;;;24.53;53.26
14293;BME280;62290;59.420;17.842;2023-08-08T06:56:50;98090.78;;;24.52;53.07
14293;BME280;62290;59.420;17.842;2023-08-08T06:59:19;98088.94;;;24.52;52.93
14293;BME280;62290;59.420;17.842;2023-08-08T07:01:47;98084.56;;;24.51;53.18
14293;BME280;62290;59.420;17.842;2023-08-08T07:04:15;98086.25;;;24.52;53.29
14293;BME280;62290;59.420;17.842;2023-08-08T07:06:45;98085.41;;;24.52;52.96
14293;BME280;62290;59.420;17.842;2023-08-08T07:09:13;98089.78;;;24.53;53.09
14293;BME280;62290;59.420;17.842;2023-08-08T07:11:41;98080.03;;;24.52;53.10
14293;BME280;62290;59.420;17.842;2023-08-08T07:14:09;98081.06;;;24.51;53.12
14293;BME280;62290;59.420;17.842;2023-08-08T07:16:37;98085.41;;;24.52;53.17
14293;BME280;62290;59.420;17.842;2023-08-08T07:19:05;98070.72;;;24.48;52.76
14293;BME280;62290;59.420;17.842;2023-08-08T07:21:33;98082.72;;;24.52;52.87
14293;BME280;62290;59.420;17.842;2023-08-08T07:24:03;98084.41;;;24.53;53.21
14293;BME280;62290;59.420;17.842;2023-08-08T07:26:31;98081.69;;;24.53;53.43
14293;BME280;62290;59.420;17.842;2023-08-08T07:28:59;98085.41;;;24.52;53.46
14293;BME280;62290;59.420;17.842;2023-08-08T07:31:27;98081.69;;;24.53;52.93
14293;BME280;62290;59.420;17.842;2023-08-08T07:33:55;98078.19;;;24.52;52.97
14293;BME280;62290;59.420;17.842;2023-08-08T07:36:23;98087.09;;;24.53;52.89
14293;BME280;62290;59.420;17.842;2023-08-08T07:38:51;98076.31;;;24.53;53.32
14293;BME280;62290;59.420;17.842;2023-08-08T07:41:24;98080.66;;;24.54;53.50
14293;BME280;62290;59.420;17.842;2023-08-08T07:43:53;98084.41;;;24.53;53.11
14293;BME280;62290;59.420;17.842;2023-08-08T07:46:21;98084.41;;;24.53;53.43
14293;BME280;62290;59.420;17.842;2023-08-08T07:48:49;98078.19;;;24.52;53.29
14293;BME280;62290;59.420;17.842;2023-08-08T07:51:17;98079.00;;;24.53;53.21
14293;BME280;62290;59.420;17.842;2023-08-08T07:53:45;98077.13;;;24.53;53.37
14293;BME280;62290;59.420;17.842;2023-08-08T07:56:13;98071.75;;;24.53;53.13
14293;BME280;62290;59.420;17.842;2023-08-08T07:58:42;98069.25;;;24.52;53.31
14293;BME280;62290;59.420;17.842;2023-08-08T08:01:10;98073.63;;;24.53;53.42
14293;BME280;62290;59.420;17.842;2023-08-08T08:03:40;98076.31;;;24.53;53.30
14293;BME280;62290;59.420;17.842;2023-08-08T08:06:08;98080.03;;;24.52;53.54
14293;BME280;62290;59.420;17.842;2023-08-08T08:08:36;98074.66;;;24.52;53.54
14293;BME280;62290;59.420;17.842;2023-08-08T08:11:04;98079.19;;;24.51;53.94
14293;BME280;62290;59.420;17.842;2023-08-08T08:13:32;98074.88;;;24.50;53.45
14293;BME280;62290;59.420;17.842;2023-08-08T08:16:02;98079.19;;;24.51;53.71
14293;BME280;62290;59.420;17.842;2023-08-08T08:18:30;98082.94;;;24.50;53.91
14293;BME280;62290;59.420;17.842;2023-08-08T08:21:00;98075.03;;;24.49;53.73
14293;BME280;62290;59.420;17.842;2023-08-08T08:23:28;98076.50;;;24.51;53.65
14293;BME280;62290;59.420;17.842;2023-08-08T08:25:58;98075.47;;;24.52;54.09
14293;BME280;62290;59.420;17.842;2023-08-08T08:28:26;98075.25;;;24.54;53.98
14293;BME280;62290;59.420;17.842;2023-08-08T08:30:54;98067.81;;;24.56;54.13
14293;BME280;62290;59.420;17.842;2023-08-08T08:33:24;98073.00;;;24.58;53.72
14293;BME280;62290;59.420;17.842;2023-08-08T08:35:52;98071.97;;;24.58;54.05
14293;BME280;62290;59.420;17.842;2023-08-08T08:38:20;98070.94;;;24.60;53.83
14293;BME280;62290;59.420;17.842;2023-08-08T08:40:48;98075.09;;;24.62;53.93
14293;BME280;62290;59.420;17.842;2023-08-08T08:43:17;98068.06;;;24.61;53.87
14293;BME280;62290;59.420;17.842;2023-08-08T08:45:48;98068.47;;;24.58;54.05
14293;BME280;62290;59.420;17.842;2023-08-08T08:48:18;98080.47;;;24.62;53.89
14293;BME280;62290;59.420;17.842;2023-08-08T08:50:49;98075.09;;;24.62;53.67
14293;BME280;62290;59.420;17.842;2023-08-08T08:53:17;98077.78;;;24.62;53.55
14293;BME280;62290;59.420;17.842;2023-08-08T08:55:46;98092.06;;;24.63;53.79
14293;BME280;62290;59.420;17.842;2023-08-08T08:58:15;98088.38;;;24.64;53.74
14293;BME280;62290;59.420;17.842;2023-08-08T09:00:44;98083.16;;;24.62;53.78
14293;BME280;62290;59.420;17.842;2023-08-08T09:03:13;98088.31;;;24.57;53.61
14293;BME280;62290;59.420;17.842;2023-08-08T09:05:42;98092.47;;;24.60;53.75
14293;BME280;62290;59.420;17.842;2023-08-08T09:08:13;98098.47;;;24.62;53.75
14293;BME280;62290;59.420;17.842;2023-08-08T09:10:42;98098.25;;;24.56;53.84
14293;BME280;62290;59.420;17.842;2023-08-08T09:13:10;98111.13;;;24.61;54.00
14293;BME280;62290;59.420;17.842;2023-08-08T09:15:38;98110.09;;;24.62;54.05
14293;BME280;62290;59.420;17.842;2023-08-08T09:18:07;98114.63;;;24.62;53.93
14293;BME280;62290;59.420;17.842;2023-08-08T09:20:35;98104.91;;;24.61;54.15
14293;BME280;62290;59.420;17.842;2023-08-08T09:23:04;98108.44;;;24.61;54.09
14293;BME280;62290;59.420;17.842;2023-08-08T09:25:33;98110.09;;;24.62;53.87
14293;BME280;62290;59.420;17.842;2023-08-08T09:28:01;98120.84;;;24.62;54.09
14293;BME280;62290;59.420;17.842;2023-08-08T09:30:29;98113.19;;;24.59;53.95
14293;BME280;62290;59.420;17.842;2023-08-08T09:33:00;98126.06;;;24.64;53.95
14293;BME280;62290;59.420;17.842;2023-08-08T09:35:28;98134.13;;;24.64;53.89
14293;BME280;62290;59.420;17.842;2023-08-08T09:37:57;98140.31;;;24.64;53.50
14293;BME280;62290;59.420;17.842;2023-08-08T09:40:25;98132.25;;;24.64;53.98
14293;BME280;62290;59.420;17.842;2023-08-08T09:42:56;98133.31;;;24.63;53.85
14293;BME280;62290;59.420;17.842;2023-08-08T09:45:25;98135.34;;;24.54;53.54
14293;BME280;62290;59.420;17.842;2023-08-08T09:47:53;98153.78;;;24.64;53.75
14293;BME280;62290;59.420;17.842;2023-08-08T09:50:21;98154.63;;;24.65;53.77
14293;BME280;62290;59.420;17.842;2023-08-08T09:52:49;98158.16;;;24.65;53.70
14293;BME280;62290;59.420;17.842;2023-08-08T09:55:19;98160.00;;;24.65;53.75
14293;BME280;62290;59.420;17.842;2023-08-08T09:57:48;98171.63;;;24.65;53.60
14293;BME280;62290;59.420;17.842;2023-08-08T10:00:18;98171.63;;;24.65;53.85
14293;BME280;62290;59.420;17.842;2023-08-08T10:02:47;98169.94;;;24.64;53.63
14293;BME280;62290;59.420;17.842;2023-08-08T10:05:16;98171.41;;;24.67;53.68
14293;BME280;62290;59.420;17.842;2023-08-08T10:07:45;98174.09;;;24.67;53.65
14293;BME280;62290;59.420;17.842;2023-08-08T10:10:13;98186.75;;;24.66;53.64
14293;BME280;62290;59.420;17.842;2023-08-08T10:12:42;98181.56;;;24.65;53.27
14293;BME280;62290;59.420;17.842;2023-08-08T10:15:10;98194.84;;;24.66;53.71
14293;BME280;62290;59.420;17.842;2023-08-08T10:17:40;98189.00;;;24.63;53.60
14293;BME280;62290;59.420;17.842;2023-08-08T10:20:10;98193.16;;;24.65;53.36
14293;BME280;62290;59.420;17.842;2023-08-08T10:22:42;98200.00;;;24.68;53.06
14293;BME280;62290;59.420;17.842;2023-08-08T10:25:18;98213.25;;;24.69;53.28
14293;BME280;62290;59.420;17.842;2023-08-08T10:27:46;98219.88;;;24.67;53.10
14293;BME280;62290;59.420;17.842;2023-08-08T10:30:14;98219.88;;;24.67;53.14
14293;BME280;62290;59.420;17.842;2023-08-08T10:32:45;98228.41;;;24.70;53.61
14293;BME280;62290;59.420;17.842;2023-08-08T10:35:14;98234.41;;;24.72;53.46
14293;BME280;62290;59.420;17.842;2023-08-08T10:37:52;98238.38;;;24.76;53.92
14293;BME280;62290;59.420;17.842;2023-08-08T10:40:20;98240.03;;;24.77;54.70
14293;BME280;62290;59.420;17.842;2023-08-08T10:42:48;98245.66;;;24.82;55.74
14293;BME280;62290;59.420;17.842;2023-08-08T10:45:16;98256.06;;;24.85;56.26
14293;BME280;62290;59.420;17.842;2023-08-08T10:47:46;98260.81;;;24.90;56.65
14293;BME280;62290;59.420;17.842;2023-08-08T10:50:14;98274.50;;;24.88;56.45
14293;BME280;62290;59.420;17.842;2023-08-08T10:52:51;98283.25;;;24.97;56.25
14293;BME280;62290;59.420;17.842;2023-08-08T10:55:21;98280.91;;;24.87;56.24
14293;BME280;62290;59.420;17.842;2023-08-08T10:57:54;98279.50;;;24.91;56.42
14293;BME280;62290;59.420;17.842;2023-08-08T11:00:25;98294.44;;;25.00;55.97
14293;BME280;62290;59.420;17.842;2023-08-08T11:02:55;98304.22;;;25.01;55.55
14293;BME280;62290;59.420;17.842;2023-08-08T11:05:25;98312.28;;;25.01;55.62
14293;BME280;62290;59.420;17.842;2023-08-08T11:07:54;98312.91;;;25.03;55.21
14293;BME280;62290;59.420;17.842;2023-08-08T11:10:22;98321.00;;;25.03;55.01
14293;BME280;62290;59.420;17.842;2023-08-08T11:12:56;98331.78;;;25.03;54.80
14293;BME280;62290;59.420;17.842;2023-08-08T11:15:24;98331.78;;;25.03;54.37
14293;BME280;62290;59.420;17.842;2023-08-08T11:17:55;98349.63;;;25.04;53.92
14293;BME280;62290;59.420;17.842;2023-08-08T11:20:24;98357.88;;;25.03;54.28
14293;BME280;62290;59.420;17.842;2023-08-08T11:22:53;98362.25;;;25.04;53.95
14293;BME280;62290;59.420;17.842;2023-08-08T11:25:21;98362.25;;;25.04;53.93
14293;BME280;62290;59.420;17.842;2023-08-08T11:27:51;98372.44;;;25.08;55.39
14293;BME280;62290;59.420;17.842;2023-08-08T11:30:21;98390.47;;;25.08;55.02
14293;BME280;62290;59.420;17.842;2023-08-08T11:32:50;98388.22;;;25.11;54.74
14293;BME280;62290;59.420;17.842;2023-08-08T11:35:24;98384.66;;;25.11;55.22
14293;BME280;62290;59.420;17.842;2023-08-08T11:37:53;98393.81;;;25.16;55.06
14293;BME280;62290;59.420;17.842;2023-08-08T11:40:23;98390.72;;;25.13;54.47
14293;BME280;62290;59.420;17.842;2023-08-08T11:42:54;98411.47;;;25.19;54.30
14293;BME280;62290;59.420;17.842;2023-08-08T11:45:24;98420.00;;;25.23;53.97
14293;BME280;62290;59.420;17.842;2023-08-08T11:47:54;98417.09;;;25.24;53.89
14293;BME280;62290;59.420;17.842;2023-08-08T11:50:25;98428.53;;;25.26;53.43
14293;BME280;62290;59.420;17.842;2023-08-08T11:52:55;98428.31;;;25.28;53.94
14293;BME280;62290;59.420;17.842;2023-08-08T11:55:27;98435.38;;;25.29;53.54
14293;BME280;62290;59.420;17.842;2023-08-08T11:57:56;98444.69;;;25.26;53.42
14293;BME280;62290;59.420;17.842;2023-08-08T12:00:27;98438.47;;;25.26;53.38
14293;BME280;62290;59.420;17.842;2023-08-08T12:02:57;98448.19;;;25.27;53.06
14293;BME280;62290;59.420;17.842;2023-08-08T12:05:27;98452.56;;;25.28;53.03
14293;BME280;62290;59.420;17.842;2023-08-08T12:07:55;98455.91;;;25.30;52.98
14293;BME280;62290;59.420;17.842;2023-08-08T12:10:23;98386.03;;;24.94;53.09
14293;BME280;62290;59.420;17.842;2023-08-08T12:12:53;98468.16;;;25.32;53.29
14293;BME280;62290;59.420;17.842;2023-08-08T12:15:23;98473.34;;;25.34;52.95
14293;BME280;62290;59.420;17.842;2023-08-08T12:17:51;98470.44;;;25.35;53.21
14293;BME280;62290;59.420;17.842;2023-08-08T12:20:19;98476.69;;;25.36;52.66
14293;BME280;62290;59.420;17.842;2023-08-08T12:22:48;98484.56;;;25.37;52.89
14293;BME280;62290;59.420;17.842;2023-08-08T12:25:16;98478.16;;;25.38;52.37
14293;BME280;62290;59.420;17.842;2023-08-08T12:27:44;98488.72;;;25.40;52.85
14293;BME280;62290;59.420;17.842;2023-08-08T12:30:15;98484.16;;;25.34;52.31
14293;BME280;62290;59.420;17.842;2023-08-08T12:32:43;98502.03;;;25.41;52.43
14293;BME280;62290;59.420;17.842;2023-08-08T12:35:11;98492.06;;;25.42;52.80
14293;BME280;62290;59.420;17.842;2023-08-08T12:37:39;98499.13;;;25.43;52.39
14293;BME280;62290;59.420;17.842;2023-08-08T12:40:09;98511.56;;;25.44;52.17
14293;BME280;62290;59.420;17.842;2023-08-08T12:42:38;98509.72;;;25.44;51.96
14293;BME280;62290;59.420;17.842;2023-08-08T12:45:07;98514.06;;;25.45;51.61
14293;BME280;62290;59.420;17.842;2023-08-08T12:47:36;98514.94;;;25.46;51.85
14293;BME280;62290;59.420;17.842;2023-08-08T12:50:05;98525.72;;;25.46;51.70
14293;BME280;62290;59.420;17.842;2023-08-08T12:52:34;98534.78;;;25.45;51.14
14293;BME280;62290;59.420;17.842;2023-08-08T12:55:06;98535.84;;;25.44;50.37
14293;BME280;62290;59.420;17.842;2023-08-08T12:57:37;98532.69;;;25.40;49.43